createdAt,value
2023-04-07T00:00:18.981Z,-84
2023-04-07T00:02:49.090Z,-85
2023-04-07T00:05:17.853Z,-85
2023-04-07T00:07:55.645Z,-84
2023-04-07T00:10:25.969Z,-85
2023-04-07T00:12:54.439Z,-85
2023-04-07T00:15:23.032Z,-85
2023-04-07T00:17:53.190Z,-85
2023-04-07T00:20:21.841Z,-85
2023-04-07T00:22:50.744Z,-86
2023-04-07T00:25:19.420Z,-85
2023-04-07T00:27:48.015Z,-84
2023-04-07T00:30:17.777Z,-85
2023-04-07T00:32:46.693Z,-87
2023-04-07T00:35:16.550Z,-85
2023-04-07T00:37:45.146Z,-85
2023-04-07T00:40:13.936Z,-86
2023-04-07T00:42:42.450Z,-86
2023-04-07T00:45:12.824Z,-85
2023-04-07T00:47:41.667Z,-85
2023-04-07T00:50:11.407Z,-85
2023-04-07T00:52:42.491Z,-85
2023-04-07T00:55:11.917Z,-85
2023-04-07T00:57:40.528Z,-85
2023-04-07T01:00:11.061Z,-86
2023-04-07T01:02:46.686Z,-85
2023-04-07T01:05:22.583Z,-84
2023-04-07T01:08:02.198Z,-86
2023-04-07T01:10:43.349Z,-85
2023-04-07T01:13:25.463Z,-84
2023-04-07T01:15:57.681Z,-85
2023-04-07T01:18:34.660Z,-85
2023-04-07T01:21:08.916Z,-86
2023-04-07T01:24:05.920Z,-86
2023-04-07T01:26:35.404Z,-86
2023-04-07T01:29:47.782Z,-86
2023-04-07T01:32:18.292Z,-85
2023-04-07T01:34:50.324Z,-86
2023-04-07T01:37:20.399Z,-84
2023-04-07T01:39:49.213Z,-84
2023-04-07T01:42:20.393Z,-85
2023-04-07T01:44:52.003Z,-85
2023-04-07T01:47:21.131Z,-87
2023-04-07T01:49:52.230Z,-87
2023-04-07T01:52:22.063Z,-84
2023-04-07T01:54:51.529Z,-85
2023-04-07T01:57:20.506Z,-86
2023-04-07T01:59:50.883Z,-88
2023-04-07T02:02:19.630Z,-87
2023-04-07T02:04:56.382Z,-86
2023-04-07T02:07:33.230Z,-86
2023-04-07T02:10:08.217Z,-86
2023-04-07T02:12:39.452Z,-86
2023-04-07T02:15:13.685Z,-86
2023-04-07T02:17:51.221Z,-87
2023-04-07T02:20:22.120Z,-86
2023-04-07T02:22:50.946Z,-87
2023-04-07T02:25:25.044Z,-86
2023-04-07T02:27:54.123Z,-86
2023-04-07T02:30:24.897Z,-86
2023-04-07T02:32:53.728Z,-87
2023-04-07T02:35:22.914Z,-86
2023-04-07T02:37:51.838Z,-86
2023-04-07T02:40:20.898Z,-86
2023-04-07T02:42:49.399Z,-87
2023-04-07T02:45:18.057Z,-86
2023-04-07T02:47:48.202Z,-86
2023-04-07T02:50:16.882Z,-86
2023-04-07T02:52:45.572Z,-86
2023-04-07T02:55:14.176Z,-86
2023-04-07T02:57:42.697Z,-86
2023-04-07T03:00:13.235Z,-87
2023-04-07T03:02:41.819Z,-87
2023-04-07T03:05:12.188Z,-86
2023-04-07T03:07:41.555Z,-85
2023-04-07T03:10:11.428Z,-87
2023-04-07T03:12:40.062Z,-87
2023-04-07T03:15:10.230Z,-87
2023-04-07T03:17:38.864Z,-87
2023-04-07T03:20:09.760Z,-83
2023-04-07T03:22:39.583Z,-85
2023-04-07T03:25:09.007Z,-87
2023-04-07T03:27:37.578Z,-88
2023-04-07T03:30:07.927Z,-87
2023-04-07T03:32:36.475Z,-86
2023-04-07T03:35:05.362Z,-88
2023-04-07T03:37:33.872Z,-87
2023-04-07T03:40:03.767Z,-87
2023-04-07T03:42:32.332Z,-87
2023-04-07T03:45:00.834Z,-87
2023-04-07T03:47:29.334Z,-87
2023-04-07T03:49:57.909Z,-87
2023-04-07T03:52:26.529Z,-87
2023-04-07T03:54:55.089Z,-87
2023-04-07T03:57:25.375Z,-87
2023-04-07T03:59:54.500Z,-87
2023-04-07T04:02:23.260Z,-86
2023-04-07T04:04:51.838Z,-85
2023-04-07T04:07:20.419Z,-86
2023-04-07T04:09:48.952Z,-87
2023-04-07T04:12:17.525Z,-87
2023-04-07T04:14:47.507Z,-87
2023-04-07T04:17:15.998Z,-87
2023-04-07T04:19:44.562Z,-87
2023-04-07T04:22:13.231Z,-85
2023-04-07T04:24:42.615Z,-87
2023-04-07T04:27:11.115Z,-88
2023-04-07T04:29:39.944Z,-87
2023-04-07T04:32:09.875Z,-86
2023-04-07T04:34:38.388Z,-86
2023-04-07T04:37:06.972Z,-86
2023-04-07T04:39:35.789Z,-87
2023-04-07T04:42:04.356Z,-86
2023-04-07T04:44:32.865Z,-87
2023-04-07T04:47:01.459Z,-87
2023-04-07T04:49:31.641Z,-86
2023-04-07T04:52:00.190Z,-86
2023-04-07T04:54:28.734Z,-88
2023-04-07T04:56:57.681Z,-86
2023-04-07T04:59:27.060Z,-87
2023-04-07T05:01:55.676Z,-86
2023-04-07T05:04:24.583Z,-86
2023-04-07T05:06:54.625Z,-87
2023-04-07T05:09:23.111Z,-87
2023-04-07T05:11:51.592Z,-86
2023-04-07T05:14:20.184Z,-86
2023-04-07T05:16:48.711Z,-88
2023-04-07T05:19:17.252Z,-86
2023-04-07T05:21:45.791Z,-86
2023-04-07T05:24:15.730Z,-86
2023-04-07T05:26:44.287Z,-87
2023-04-07T05:29:12.797Z,-86
2023-04-07T05:31:41.705Z,-86
2023-04-07T05:34:10.474Z,-86
2023-04-07T05:36:39.255Z,-86
2023-04-07T05:39:07.800Z,-87
2023-04-07T05:41:37.792Z,-87
2023-04-07T05:44:07.849Z,-87
2023-04-07T05:46:36.410Z,-87
2023-04-07T05:49:18.895Z,-87
2023-04-07T05:51:49.222Z,-87
2023-04-07T05:54:18.093Z,-87
2023-04-07T05:56:48.125Z,-87
2023-04-07T05:59:16.800Z,-87
2023-04-07T06:01:45.571Z,-87
2023-04-07T06:04:14.094Z,-87
2023-04-07T06:06:42.630Z,-87
2023-04-07T06:09:11.581Z,-87
2023-04-07T06:11:40.120Z,-87
2023-04-07T06:14:10.773Z,-87
2023-04-07T06:16:39.323Z,-87
2023-04-07T06:19:08.364Z,-87
2023-04-07T06:21:36.919Z,-88
2023-04-07T06:24:05.602Z,-87
2023-04-07T06:26:34.384Z,-87
2023-04-07T06:29:03.073Z,-87
2023-04-07T06:31:33.029Z,-88
2023-04-07T06:34:01.880Z,-87
2023-04-07T06:36:30.417Z,-88
2023-04-07T06:38:59.032Z,-88
2023-04-07T06:41:27.626Z,-89
2023-04-07T06:43:56.213Z,-88
2023-04-07T06:46:27.097Z,-88
2023-04-07T06:48:58.095Z,-86
2023-04-07T06:51:27.997Z,-86
2023-04-07T06:53:56.886Z,-88
2023-04-07T06:56:26.220Z,-88
2023-04-07T06:58:54.896Z,-88
2023-04-07T07:01:23.708Z,-88
2023-04-07T07:03:52.769Z,-88
2023-04-07T07:06:23.311Z,-88
2023-04-07T07:08:51.977Z,-89
2023-04-07T07:11:21.871Z,-88
2023-04-07T07:13:50.758Z,-89
2023-04-07T07:16:19.449Z,-90
2023-04-07T07:18:52.168Z,-88
2023-04-07T07:21:22.607Z,-89
2023-04-07T07:23:51.821Z,-90
2023-04-07T07:26:20.925Z,-89
2023-04-07T07:28:49.710Z,-90
2023-04-07T07:31:18.873Z,-90
2023-04-07T07:33:49.459Z,-90
2023-04-07T07:36:18.568Z,-91
2023-04-07T07:38:48.711Z,-91
2023-04-07T07:41:17.401Z,-92
2023-04-07T07:43:46.492Z,-91
2023-04-07T07:46:15.654Z,-91
2023-04-07T07:48:44.874Z,-91
2023-04-07T07:51:13.559Z,-93
2023-04-07T09:00:21.965Z,-93
2023-04-07T09:02:48.070Z,-93
2023-04-07T09:05:23.697Z,-92
2023-04-07T09:07:52.592Z,-92
2023-04-07T09:10:21.592Z,-92
2023-04-07T09:12:51.676Z,-93
2023-04-07T09:15:23.398Z,-92
2023-04-07T09:17:52.386Z,-91
2023-04-07T09:20:21.309Z,-92
2023-04-07T09:22:50.574Z,-92
2023-04-07T09:25:22.933Z,-91
2023-04-07T09:28:03.326Z,-90
2023-04-07T09:30:35.172Z,-91
2023-04-07T09:33:06.820Z,-93
2023-04-07T09:35:54.606Z,-93
2023-04-07T09:38:23.771Z,-93
2023-04-07T09:40:52.570Z,-93
2023-04-07T09:43:26.353Z,-93
2023-04-07T09:54:13.429Z,-95
2023-04-07T10:02:01.584Z,-94
2023-04-07T10:04:31.374Z,-92
2023-04-07T10:07:03.551Z,-91
2023-04-07T10:09:33.811Z,-91
2023-04-07T10:12:03.051Z,-91
2023-04-07T10:14:34.098Z,-92
2023-04-07T10:17:04.675Z,-89
2023-04-07T10:19:35.920Z,-89
2023-04-07T10:22:08.136Z,-91
2023-04-07T10:24:56.030Z,-92
2023-04-07T10:27:33.228Z,-90
2023-04-07T10:30:04.440Z,-91
2023-04-07T10:32:33.267Z,-90
2023-04-07T10:35:02.467Z,-90
2023-04-07T10:37:31.145Z,-90
2023-04-07T10:40:32.696Z,-90
2023-04-07T10:43:02.001Z,-90
2023-04-07T10:46:02.692Z,-90
2023-04-07T10:48:33.369Z,-90
2023-04-07T10:51:16.777Z,-90
2023-04-07T10:54:23.035Z,-89
2023-04-07T10:57:17.203Z,-89
2023-04-07T11:00:24.993Z,-89
2023-04-07T11:02:53.745Z,-89
2023-04-07T11:05:24.488Z,-89
2023-04-07T11:08:02.652Z,-89
2023-04-07T11:10:31.426Z,-89
2023-04-07T11:13:07.767Z,-88
2023-04-07T11:15:40.453Z,-89
2023-04-07T11:18:17.257Z,-85
2023-04-07T11:20:51.702Z,-84
2023-04-07T11:23:23.066Z,-84
2023-04-07T11:25:54.632Z,-86
2023-04-07T11:28:24.597Z,-84
2023-04-07T11:30:54.918Z,-84
2023-04-07T11:33:26.274Z,-83
2023-04-07T11:35:57.669Z,-83
2023-04-07T11:38:28.430Z,-85
2023-04-07T11:40:58.804Z,-84
2023-04-07T11:43:29.595Z,-84
2023-04-07T11:46:12.406Z,-84
2023-04-07T11:48:43.120Z,-84
2023-04-07T11:51:19.280Z,-84
2023-04-07T11:53:48.558Z,-83
2023-04-07T11:56:19.018Z,-82
2023-04-07T11:58:54.424Z,-83
2023-04-07T12:01:25.033Z,-83
2023-04-07T12:03:59.984Z,-84
2023-04-07T12:06:30.455Z,-84
2023-04-07T12:08:58.869Z,-83
2023-04-07T12:11:27.793Z,-83
2023-04-07T12:13:57.853Z,-83
2023-04-07T12:16:26.937Z,-82
2023-04-07T12:18:55.446Z,-83
2023-04-07T12:21:24.125Z,-83
2023-04-07T12:23:52.616Z,-82
2023-04-07T12:26:23.377Z,-83
2023-04-07T12:28:52.112Z,-83
2023-04-07T12:31:21.994Z,-83
2023-04-07T12:33:50.548Z,-83
2023-04-07T12:36:19.165Z,-83
2023-04-07T12:38:47.571Z,-82
2023-04-07T12:41:16.052Z,-82
2023-04-07T12:43:46.258Z,-83
2023-04-07T12:46:15.767Z,-83
2023-04-07T12:48:46.040Z,-82
2023-04-07T12:51:14.480Z,-83
2023-04-07T12:53:42.842Z,-82
2023-04-07T12:56:13.203Z,-83
2023-04-07T12:58:41.798Z,-82
2023-04-07T13:01:11.921Z,-82
2023-04-07T13:03:40.850Z,-82
2023-04-07T13:06:11.006Z,-83
2023-04-07T13:08:40.021Z,-82
2023-04-07T13:11:08.523Z,-83
2023-04-07T13:13:36.942Z,-82
2023-04-07T13:16:05.672Z,-83
2023-04-07T13:18:34.091Z,-83
2023-04-07T13:21:24.932Z,-82
2023-04-07T13:23:52.788Z,-83
2023-04-07T13:26:21.299Z,-83
2023-04-07T13:28:49.690Z,-82
2023-04-07T13:31:18.238Z,-82
2023-04-07T13:33:47.153Z,-84
2023-04-07T13:36:15.949Z,-82
2023-04-07T13:38:44.443Z,-82
2023-04-07T13:41:14.220Z,-82
2023-04-07T13:43:42.912Z,-81
2023-04-07T13:46:27.444Z,-80
2023-04-07T13:48:57.411Z,-82
2023-04-07T13:51:25.974Z,-83
2023-04-07T13:53:54.511Z,-84
2023-04-07T13:56:24.779Z,-82
2023-04-07T13:58:54.102Z,-82
2023-04-07T14:01:22.751Z,-82
2023-04-07T14:03:51.535Z,-83
2023-04-07T14:06:22.898Z,-82
2023-04-07T14:08:52.071Z,-82
2023-04-07T14:11:22.214Z,-83
2023-04-07T14:13:54.640Z,-82
2023-04-07T14:16:23.273Z,-82
2023-04-07T14:18:51.865Z,-83
2023-04-07T14:21:20.239Z,-82
2023-04-07T14:23:48.675Z,-83
2023-04-07T14:26:17.149Z,-83
2023-04-07T14:28:45.804Z,-83
2023-04-07T14:31:17.093Z,-83
2023-04-07T14:33:46.875Z,-83
2023-04-07T14:36:17.469Z,-82
2023-04-07T14:38:46.043Z,-82
2023-04-07T14:41:14.415Z,-82
2023-04-07T14:43:42.821Z,-81
2023-04-07T14:46:12.251Z,-82
2023-04-07T14:48:42.262Z,-82
2023-04-07T14:51:14.370Z,-82
2023-04-07T14:53:43.428Z,-83
2023-04-07T14:56:11.871Z,-83
2023-04-07T14:58:40.857Z,-83
2023-04-07T15:01:09.488Z,-83
2023-04-07T15:03:38.608Z,-83
2023-04-07T15:06:14.416Z,-82
2023-04-07T15:08:42.867Z,-85
2023-04-07T15:11:11.669Z,-85
2023-04-07T15:13:40.157Z,-85
2023-04-07T15:16:11.366Z,-86
2023-04-07T15:18:42.492Z,-86
2023-04-07T15:21:13.680Z,-86
2023-04-07T15:23:42.800Z,-86
2023-04-07T15:26:12.127Z,-87
2023-04-07T15:28:40.868Z,-87
2023-04-07T15:31:10.183Z,-86
2023-04-07T15:33:40.648Z,-86
2023-04-07T15:36:11.666Z,-87
2023-04-07T15:38:40.510Z,-87
2023-04-07T15:41:09.235Z,-86
2023-04-07T15:43:37.925Z,-86
2023-04-07T15:46:07.317Z,-86
2023-04-07T15:48:35.892Z,-88
2023-04-07T15:51:04.491Z,-87
2023-04-07T15:53:34.800Z,-86
2023-04-07T15:56:03.465Z,-86
2023-04-07T15:58:33.223Z,-87
2023-04-07T16:01:02.057Z,-87
2023-04-07T16:03:32.175Z,-87
2023-04-07T16:06:00.780Z,-85
2023-04-07T16:08:29.513Z,-86
2023-04-07T16:10:59.424Z,-86
2023-04-07T16:13:28.101Z,-87
2023-04-07T16:15:58.358Z,-88
2023-04-07T16:18:27.065Z,-87
2023-04-07T16:20:55.711Z,-86
2023-04-07T16:23:24.485Z,-86
2023-04-07T16:25:52.938Z,-87
2023-04-07T16:28:22.936Z,-86
2023-04-07T16:30:51.422Z,-88
2023-04-07T16:33:19.959Z,-86
2023-04-07T16:35:48.589Z,-87
2023-04-07T16:38:17.178Z,-87
2023-04-07T16:41:02.635Z,-86
2023-04-07T16:43:33.694Z,-86
2023-04-07T16:46:02.243Z,-87
2023-04-07T16:48:30.876Z,-87
2023-04-07T16:50:59.295Z,-86
2023-04-07T16:53:27.811Z,-86
2023-04-07T16:55:56.669Z,-86
2023-04-07T16:58:25.208Z,-86
2023-04-07T17:00:55.338Z,-86
2023-04-07T17:03:23.965Z,-86
2023-04-07T17:05:52.608Z,-86
2023-04-07T17:08:21.229Z,-86
2023-04-07T17:10:50.019Z,-85
2023-04-07T17:13:18.527Z,-84
2023-04-07T17:15:46.985Z,-85
2023-04-07T17:18:16.852Z,-86
2023-04-07T17:20:45.399Z,-87
2023-04-07T17:23:14.316Z,-85
2023-04-07T17:25:42.944Z,-86
2023-04-07T17:28:11.576Z,-87
2023-04-07T17:30:40.191Z,-86
2023-04-07T17:33:09.295Z,-86
2023-04-07T17:35:39.271Z,-86
2023-04-07T17:38:07.955Z,-86
2023-04-07T17:40:36.717Z,-86
2023-04-07T17:43:05.320Z,-86
2023-04-07T17:45:33.908Z,-86
2023-04-07T17:48:03.728Z,-85
2023-04-07T17:50:32.782Z,-85
2023-04-07T17:53:03.035Z,-86
2023-04-07T17:55:31.549Z,-86
2023-04-07T17:58:01.212Z,-85
2023-04-07T18:00:30.729Z,-86
2023-04-07T18:02:59.668Z,-87
2023-04-07T18:05:30.924Z,-86
2023-04-07T18:07:59.758Z,-86
2023-04-07T18:10:30.473Z,-86
2023-04-07T18:12:59.078Z,-86
2023-04-07T18:15:27.896Z,-86
2023-04-07T18:17:56.470Z,-83
2023-04-07T18:20:25.031Z,-82
2023-04-07T18:22:55.557Z,-84
2023-04-07T18:25:24.139Z,-83
2023-04-07T18:27:54.006Z,-86
2023-04-07T18:30:22.608Z,-86
2023-04-07T18:32:51.146Z,-86
2023-04-07T18:35:19.816Z,-86
2023-04-07T18:37:48.507Z,-85
2023-04-07T18:40:17.396Z,-85
2023-04-07T18:42:46.457Z,-86
2023-04-07T18:45:16.505Z,-86
2023-04-07T18:47:45.381Z,-86
2023-04-07T18:50:14.316Z,-85
2023-04-07T18:52:42.790Z,-86
2023-04-07T18:55:12.080Z,-86
2023-04-07T18:57:40.684Z,-86
2023-04-07T19:00:11.201Z,-86
2023-04-07T19:02:44.735Z,-86
2023-04-07T19:05:14.034Z,-86
2023-04-07T19:07:42.680Z,-87
2023-04-07T19:10:11.450Z,-86
2023-04-07T19:12:40.720Z,-86
2023-04-07T19:15:10.887Z,-86
2023-04-07T19:17:40.832Z,-86
2023-04-07T19:20:10.596Z,-86
2023-04-07T19:22:39.086Z,-86
2023-04-07T19:25:09.389Z,-87
2023-04-07T19:27:39.557Z,-86
2023-04-07T19:30:09.971Z,-87
2023-04-07T19:32:38.454Z,-86
2023-04-07T19:35:09.987Z,-86
2023-04-07T19:37:40.254Z,-86
2023-04-07T19:40:09.865Z,-86
2023-04-07T19:42:39.352Z,-85
2023-04-07T19:45:09.503Z,-85
2023-04-07T19:47:39.083Z,-85
2023-04-07T19:50:14.324Z,-85
2023-04-07T19:52:45.294Z,-85
2023-04-07T19:55:14.608Z,-85
2023-04-07T19:57:43.237Z,-85
2023-04-07T20:00:12.861Z,-86
2023-04-07T20:02:41.438Z,-86
2023-04-07T20:05:11.856Z,-86
2023-04-07T20:07:40.255Z,-86
2023-04-07T20:10:10.129Z,-86
2023-04-07T20:12:38.908Z,-86
2023-04-07T20:15:09.492Z,-86
2023-04-07T20:17:38.068Z,-86
2023-04-07T20:20:08.321Z,-87
2023-04-07T20:22:38.181Z,-87
2023-04-07T20:25:07.997Z,-86
2023-04-07T20:27:36.610Z,-86
2023-04-07T20:30:05.650Z,-86
2023-04-07T20:32:34.154Z,-86
2023-04-07T20:35:05.336Z,-87
2023-04-07T20:37:33.841Z,-85
2023-04-07T20:40:04.397Z,-83
2023-04-07T20:42:32.897Z,-85
2023-04-07T20:45:04.755Z,-85
2023-04-07T20:47:36.277Z,-86
2023-04-07T20:50:05.658Z,-86
2023-04-07T20:52:36.852Z,-86
2023-04-07T20:55:07.883Z,-86
2023-04-07T20:57:36.564Z,-85
2023-04-07T21:00:06.404Z,-85
2023-04-07T21:02:35.716Z,-86
2023-04-07T21:05:04.913Z,-86
2023-04-07T21:07:33.483Z,-85
2023-04-07T21:10:02.242Z,-86
2023-04-07T21:12:32.458Z,-86
2023-04-07T21:15:02.474Z,-86
2023-04-07T21:17:30.964Z,-85
2023-04-07T21:19:59.829Z,-85
2023-04-07T21:22:29.038Z,-85
2023-04-07T21:24:57.709Z,-86
2023-04-07T21:27:26.328Z,-85
2023-04-07T21:29:56.230Z,-85
2023-04-07T21:32:25.212Z,-86
2023-04-07T21:34:54.108Z,-85
2023-04-07T21:37:23.642Z,-85
2023-04-07T21:39:54.967Z,-86
2023-04-07T21:42:23.556Z,-88
2023-04-07T21:44:52.120Z,-86
2023-04-07T21:47:22.191Z,-85
2023-04-07T21:49:50.785Z,-86
2023-04-07T21:52:19.865Z,-86
2023-04-07T21:54:48.372Z,-87
2023-04-07T21:57:17.132Z,-86
2023-04-07T21:59:45.864Z,-86
2023-04-07T22:02:14.802Z,-85
2023-04-07T22:04:45.031Z,-86
2023-04-07T22:07:14.087Z,-86
2023-04-07T22:09:42.610Z,-86
2023-04-07T22:12:11.567Z,-86
2023-04-07T22:14:40.021Z,-87
2023-04-07T22:17:08.530Z,-86
2023-04-07T22:19:36.993Z,-86
2023-04-07T22:22:08.269Z,-85
2023-04-07T22:24:36.813Z,-86
2023-04-07T22:27:05.533Z,-86
2023-04-07T22:29:34.117Z,-86
2023-04-07T22:32:02.644Z,-86
2023-04-07T22:34:31.120Z,-86
2023-04-07T22:36:59.590Z,-86
2023-04-07T22:39:29.450Z,-86
2023-04-07T22:41:58.054Z,-86
2023-04-07T22:44:26.811Z,-86
2023-04-07T22:46:55.434Z,-86
2023-04-07T22:49:24.356Z,-86
2023-04-07T22:51:52.939Z,-86
2023-04-07T22:54:21.370Z,-86
2023-04-07T22:56:51.503Z,-86
2023-04-07T22:59:20.077Z,-87
2023-04-07T23:01:48.596Z,-86
2023-04-07T23:04:17.260Z,-86
2023-04-07T23:06:45.907Z,-86
2023-04-07T23:09:14.475Z,-88
2023-04-07T23:11:43.071Z,-86
2023-04-07T23:14:13.115Z,-86
2023-04-07T23:16:41.642Z,-86
2023-04-07T23:19:11.867Z,-86
2023-04-07T23:21:40.425Z,-86
2023-04-07T23:24:09.091Z,-85
2023-04-07T23:26:37.779Z,-86
2023-04-07T23:29:06.656Z,-87
2023-04-07T23:31:36.542Z,-87
2023-04-07T23:34:06.342Z,-86
2023-04-07T23:36:34.924Z,-86
2023-04-07T23:39:03.900Z,-85
2023-04-07T23:41:33.163Z,-86
2023-04-07T23:44:01.642Z,-86
2023-04-07T23:46:30.134Z,-86
2023-04-07T23:49:00.270Z,-86
2023-04-07T23:51:28.832Z,-87
2023-04-07T23:53:57.420Z,-86
2023-04-07T23:56:26.063Z,-86
2023-04-07T23:58:54.559Z,-86
